createdAt,value
2023-05-14T00:00:36.267Z,15.77
2023-05-14T00:03:06.354Z,14.67
2023-05-14T00:05:39.146Z,14.97
2023-05-14T00:08:09.182Z,18.47
2023-05-14T00:10:39.073Z,14.07
2023-05-14T00:13:09.099Z,15.37
2023-05-14T00:15:39.155Z,14.37
2023-05-14T00:18:12.457Z,16.50
2023-05-14T00:20:45.268Z,16.87
2023-05-14T00:23:15.164Z,12.77
2023-05-14T00:25:45.643Z,13.93
2023-05-14T00:28:15.571Z,13.73
2023-05-14T00:30:45.487Z,17.57
2023-05-14T00:33:15.458Z,16.57
2023-05-14T00:35:48.159Z,18.50
2023-05-14T00:38:19.739Z,16.97
2023-05-14T00:40:52.127Z,13.90
2023-05-14T00:43:22.809Z,17.13
2023-05-14T00:45:54.233Z,15.03
2023-05-14T00:48:24.837Z,14.23
2023-05-14T00:50:57.938Z,13.33
2023-05-14T00:53:28.104Z,16.27
2023-05-14T00:55:58.026Z,15.63
2023-05-14T00:58:28.433Z,14.67
2023-05-14T01:00:58.576Z,14.40
2023-05-14T01:03:29.123Z,14.47
2023-05-14T01:06:09.960Z,16.73
2023-05-14T01:08:49.814Z,16.50
2023-05-14T01:11:25.592Z,15.03
2023-05-14T01:14:06.020Z,16.27
2023-05-14T01:16:37.566Z,16.43
2023-05-14T01:19:10.834Z,16.43
2023-05-14T01:21:46.614Z,15.40
2023-05-14T01:24:16.607Z,16.10
2023-05-14T01:26:46.523Z,15.17
2023-05-14T01:29:22.640Z,18.13
2023-05-14T01:31:55.348Z,16.43
2023-05-14T01:34:28.792Z,18.50
2023-05-14T01:37:03.277Z,15.83
2023-05-14T01:39:34.829Z,15.77
2023-05-14T01:42:05.632Z,14.87
2023-05-14T01:44:36.883Z,16.53
2023-05-14T01:47:06.898Z,17.53
2023-05-14T01:49:37.560Z,15.73
2023-05-14T01:52:11.203Z,19.07
2023-05-14T01:54:41.134Z,14.67
2023-05-14T01:57:11.165Z,18.10
2023-05-14T01:59:41.034Z,21.00
2023-05-14T02:02:10.970Z,18.83
2023-05-14T02:04:41.092Z,16.50
2023-05-14T02:07:13.596Z,15.23
2023-05-14T02:09:43.983Z,15.40
2023-05-14T02:12:14.120Z,15.77
2023-05-14T02:14:44.186Z,15.83
2023-05-14T02:17:16.091Z,18.73
2023-05-14T02:19:46.519Z,16.90
2023-05-14T02:22:19.396Z,16.37
2023-05-14T02:24:50.163Z,20.17
2023-05-14T02:27:20.089Z,16.97
2023-05-14T02:29:50.761Z,19.20
2023-05-14T02:32:20.692Z,15.30
2023-05-14T02:34:50.820Z,16.83
2023-05-14T02:37:23.467Z,18.03
2023-05-14T02:39:53.603Z,13.93
2023-05-14T02:42:24.581Z,15.27
2023-05-14T02:44:56.056Z,19.23
2023-05-14T02:47:25.970Z,18.10
2023-05-14T02:49:55.951Z,16.20
2023-05-14T02:52:28.560Z,18.90
2023-05-14T02:54:58.584Z,18.37
2023-05-14T02:57:28.872Z,16.73
2023-05-14T02:59:58.794Z,14.67
2023-05-14T03:02:29.271Z,17.80
2023-05-14T03:04:59.720Z,16.53
2023-05-14T03:07:32.287Z,17.93
2023-05-14T03:10:02.432Z,16.60
2023-05-14T03:12:32.352Z,16.17
2023-05-14T03:15:02.314Z,15.83
2023-05-14T03:17:32.333Z,15.90
2023-05-14T03:20:02.389Z,14.90
2023-05-14T03:22:35.096Z,20.70
2023-05-14T03:25:05.034Z,19.20
2023-05-14T03:27:34.987Z,14.90
2023-05-14T03:30:04.976Z,17.50
2023-05-14T03:32:35.597Z,19.27
2023-05-14T03:35:05.602Z,14.57
2023-05-14T03:37:38.271Z,16.67
2023-05-14T03:40:09.896Z,16.33
2023-05-14T03:42:40.084Z,17.03
2023-05-14T03:45:12.024Z,16.57
2023-05-14T03:47:42.007Z,17.97
2023-05-14T03:50:12.671Z,15.27
2023-05-14T03:52:46.242Z,21.80
2023-05-14T03:55:16.117Z,15.27
2023-05-14T03:57:45.984Z,18.23
2023-05-14T04:00:17.055Z,17.67
2023-05-14T04:02:47.147Z,16.27
2023-05-14T04:05:17.100Z,18.20
2023-05-14T04:07:49.654Z,14.20
2023-05-14T04:10:19.589Z,13.60
2023-05-14T04:12:49.485Z,15.70
2023-05-14T04:15:19.607Z,17.20
2023-05-14T04:17:49.642Z,15.63
2023-05-14T04:20:19.772Z,15.43
2023-05-14T04:22:53.603Z,15.33
2023-05-14T04:25:24.402Z,15.60
2023-05-14T04:27:54.372Z,16.33
2023-05-14T04:30:24.710Z,16.23
2023-05-14T04:32:54.928Z,16.30
2023-05-14T04:35:25.263Z,18.50
2023-05-14T04:37:57.857Z,16.50
2023-05-14T04:40:27.754Z,22.13
2023-05-14T04:42:57.721Z,20.80
2023-05-14T04:45:32.249Z,18.90
2023-05-14T04:48:04.061Z,18.47
2023-05-14T04:50:34.072Z,22.30
2023-05-14T04:53:06.693Z,18.90
2023-05-14T04:55:36.743Z,19.60
2023-05-14T04:58:06.848Z,18.00
2023-05-14T05:00:37.746Z,19.97
2023-05-14T05:03:07.976Z,21.23
2023-05-14T05:05:38.265Z,22.97
2023-05-14T05:08:11.593Z,24.27
2023-05-14T05:10:41.835Z,20.63
2023-05-14T05:13:11.891Z,20.57
2023-05-14T05:15:41.962Z,19.30
2023-05-14T05:18:12.246Z,21.50
2023-05-14T05:20:42.481Z,21.87
2023-05-14T05:23:14.989Z,21.87
2023-05-14T05:25:45.073Z,20.27
2023-05-14T05:28:14.985Z,26.50
2023-05-14T05:30:45.536Z,22.73
2023-05-14T05:33:16.188Z,26.80
2023-05-14T05:35:46.383Z,23.20
2023-05-14T05:38:21.968Z,24.20
2023-05-14T05:40:54.199Z,25.27
2023-05-14T05:43:24.085Z,32.20
2023-05-14T05:45:54.334Z,22.33
2023-05-14T05:48:24.867Z,30.00
2023-05-14T05:50:56.579Z,26.03
2023-05-14T05:53:29.406Z,25.53
2023-05-14T05:55:59.747Z,27.07
2023-05-14T05:58:29.697Z,28.60
2023-05-14T06:01:00.448Z,28.17
2023-05-14T06:03:30.463Z,31.50
2023-05-14T06:06:00.465Z,29.83
2023-05-14T06:08:33.105Z,25.40
2023-05-14T06:11:03.070Z,29.17
2023-05-14T06:13:33.918Z,27.67
2023-05-14T06:16:04.037Z,28.80
2023-05-14T06:18:34.017Z,27.43
2023-05-14T06:21:04.016Z,27.77
2023-05-14T06:23:36.723Z,25.60
2023-05-14T06:26:06.701Z,30.23
2023-05-14T06:28:36.667Z,24.80
2023-05-14T06:31:06.895Z,27.17
2023-05-14T06:33:36.869Z,26.10
2023-05-14T06:36:08.499Z,25.67
2023-05-14T06:38:41.037Z,26.63
2023-05-14T06:41:10.932Z,28.87
2023-05-14T06:43:40.820Z,27.20
2023-05-14T06:46:10.707Z,25.67
2023-05-14T06:48:40.628Z,22.20
2023-05-14T06:51:11.151Z,20.73
2023-05-14T06:53:43.944Z,24.13
2023-05-14T06:56:14.932Z,22.07
2023-05-14T06:58:45.199Z,19.43
2023-05-14T07:01:15.140Z,18.30
2023-05-14T07:03:45.082Z,18.07
2023-05-14T07:06:15.006Z,16.73
2023-05-14T07:08:48.195Z,14.93
2023-05-14T07:11:18.539Z,15.47
2023-05-14T07:13:48.383Z,13.90
2023-05-14T07:16:18.400Z,17.03
2023-05-14T07:18:48.746Z,14.97
2023-05-14T07:21:18.788Z,17.50
2023-05-14T07:23:51.588Z,15.73
2023-05-14T07:26:21.657Z,16.63
2023-05-14T07:28:51.619Z,14.82
2023-05-14T07:31:21.491Z,14.63
2023-05-14T07:33:51.340Z,13.10
2023-05-14T07:36:21.379Z,13.93
2023-05-14T07:38:54.035Z,13.77
2023-05-14T07:41:24.778Z,13.25
2023-05-14T07:43:54.712Z,15.20
2023-05-14T07:46:26.000Z,14.57
2023-05-14T07:48:56.097Z,12.90
2023-05-14T07:51:28.530Z,18.25
2023-05-14T07:54:01.456Z,16.20
2023-05-14T07:56:31.472Z,13.32
2023-05-14T07:59:01.332Z,9.40
2023-05-14T08:04:57.478Z,11.38
2023-05-14T08:07:28.844Z,9.55
2023-05-14T08:10:03.890Z,10.15
2023-05-14T08:12:33.798Z,9.32
2023-05-14T08:15:03.926Z,14.30
2023-05-14T08:17:33.907Z,6.50
2023-05-14T08:20:03.938Z,8.73
2023-05-14T08:22:33.854Z,8.60
2023-05-14T08:25:06.739Z,7.40
2023-05-14T08:27:36.842Z,8.93
2023-05-14T08:30:07.923Z,8.18
2023-05-14T08:32:38.867Z,11.93
2023-05-14T08:35:10.080Z,10.73
2023-05-14T08:37:40.021Z,7.47
2023-05-14T08:40:13.592Z,6.82
2023-05-14T08:42:45.254Z,6.35
2023-05-14T08:45:21.248Z,5.78
2023-05-14T08:47:53.200Z,7.60
2023-05-14T08:50:23.866Z,5.80
2023-05-14T08:52:54.679Z,5.65
2023-05-14T08:55:27.583Z,4.60
2023-05-14T08:57:57.581Z,6.30
2023-05-14T09:00:27.735Z,6.18
2023-05-14T09:02:58.980Z,6.43
2023-05-14T09:05:29.032Z,5.38
2023-05-14T09:07:59.098Z,7.68
2023-05-14T09:10:32.710Z,7.05
2023-05-14T09:13:02.950Z,10.70
2023-05-14T09:15:34.073Z,6.05
2023-05-14T09:18:04.144Z,5.55
2023-05-14T09:20:35.057Z,5.20
2023-05-14T09:23:05.187Z,5.70
2023-05-14T09:25:37.947Z,9.88
2023-05-14T09:28:10.344Z,4.47
2023-05-14T09:30:43.968Z,5.85
2023-05-14T09:33:14.024Z,4.65
2023-05-14T09:35:44.485Z,5.45
2023-05-14T09:38:14.657Z,5.22
2023-05-14T09:40:48.899Z,5.60
2023-05-14T09:43:18.990Z,5.45
2023-05-14T09:45:48.886Z,7.18
2023-05-14T09:48:19.024Z,5.13
2023-05-14T09:50:49.860Z,5.15
2023-05-14T09:53:20.631Z,4.72
2023-05-14T09:55:53.403Z,4.32
2023-05-14T09:58:23.413Z,4.97
2023-05-14T10:00:54.332Z,4.88
2023-05-14T10:03:28.207Z,4.70
2023-05-14T10:06:02.500Z,6.88
2023-05-14T10:08:37.074Z,7.45
2023-05-14T10:11:18.020Z,4.18
2023-05-14T10:13:56.270Z,5.25
2023-05-14T10:16:32.121Z,4.88
2023-05-14T10:19:08.884Z,4.70
2023-05-14T10:21:41.132Z,6.50
2023-05-14T10:24:13.280Z,3.70
2023-05-14T10:26:46.857Z,4.50
2023-05-14T10:29:19.521Z,4.07
2023-05-14T10:31:51.482Z,4.85
2023-05-14T10:34:41.773Z,3.65
2023-05-14T10:37:13.691Z,4.13
2023-05-14T10:39:44.696Z,5.63
2023-05-14T10:42:20.221Z,5.00
2023-05-14T10:44:58.368Z,7.20
2023-05-14T10:47:29.692Z,3.95
2023-05-14T10:50:01.351Z,3.70
2023-05-14T10:52:40.816Z,6.63
2023-05-14T10:55:11.643Z,4.10
2023-05-14T10:57:46.725Z,5.55
2023-05-14T11:00:18.001Z,5.85
2023-05-14T11:02:48.605Z,5.40
2023-05-14T11:05:19.865Z,4.22
2023-05-14T11:07:51.980Z,9.73
2023-05-14T11:10:24.379Z,4.25
2023-05-14T11:12:57.301Z,3.42
2023-05-14T11:15:29.350Z,5.95
2023-05-14T11:17:59.402Z,4.93
2023-05-14T11:20:29.406Z,6.55
2023-05-14T11:22:59.354Z,7.40
2023-05-14T11:25:29.457Z,3.47
2023-05-14T11:28:01.992Z,6.20
2023-05-14T11:30:34.208Z,4.95
2023-05-14T11:33:04.375Z,5.47
2023-05-14T11:35:34.351Z,4.97
2023-05-14T11:38:04.229Z,3.80
2023-05-14T11:40:34.268Z,4.03
2023-05-14T11:43:09.400Z,4.90
2023-05-14T11:45:39.789Z,6.20
2023-05-14T11:48:18.353Z,5.50
2023-05-14T11:50:50.302Z,5.03
2023-05-14T11:53:22.278Z,5.70
2023-05-14T11:55:52.236Z,4.00
2023-05-14T11:58:25.023Z,3.67
2023-05-14T12:00:55.932Z,5.03
2023-05-14T12:03:26.985Z,4.45
2023-05-14T12:06:00.290Z,6.47
2023-05-14T12:08:31.803Z,5.72
2023-05-14T12:11:03.221Z,3.42
2023-05-14T12:13:36.523Z,3.85
2023-05-14T12:16:06.829Z,6.40
2023-05-14T12:18:37.059Z,3.55
2023-05-14T12:21:08.575Z,6.15
2023-05-14T12:23:38.603Z,4.70
2023-05-14T12:26:09.638Z,4.38
2023-05-14T12:28:44.717Z,3.83
2023-05-14T12:31:15.429Z,4.70
2023-05-14T12:33:45.385Z,5.07
2023-05-14T12:38:50.442Z,3.83
2023-05-14T12:41:21.481Z,4.25
2023-05-14T12:43:54.035Z,3.25
2023-05-14T12:46:24.317Z,4.55
2023-05-14T12:48:54.536Z,4.78
2023-05-14T12:51:24.654Z,4.80
2023-05-14T12:53:55.194Z,3.85
2023-05-14T12:56:28.521Z,3.72
2023-05-14T12:59:03.959Z,3.65
2023-05-14T13:01:33.992Z,4.68
2023-05-14T13:04:04.213Z,4.85
2023-05-14T13:06:34.610Z,3.60
2023-05-14T13:09:04.590Z,3.83
2023-05-14T13:11:34.652Z,4.00
2023-05-14T13:14:07.160Z,3.22
2023-05-14T13:16:37.156Z,3.90
2023-05-14T13:19:07.369Z,3.92
2023-05-14T13:21:37.196Z,10.98
2023-05-14T13:24:07.473Z,6.90
2023-05-14T13:26:37.364Z,4.90
2023-05-14T13:29:09.918Z,8.60
2023-05-14T13:31:40.082Z,4.75
2023-05-14T13:34:10.484Z,4.25
2023-05-14T13:36:41.260Z,5.50
2023-05-14T13:39:13.023Z,3.80
2023-05-14T13:41:44.141Z,7.43
2023-05-14T13:44:16.699Z,4.18
2023-05-14T13:46:46.739Z,3.92
2023-05-14T13:49:16.706Z,4.43
2023-05-14T13:51:46.574Z,5.80
2023-05-14T13:54:16.503Z,4.85
2023-05-14T13:56:46.486Z,4.65
2023-05-14T13:59:19.191Z,3.42
2023-05-14T14:01:50.301Z,3.25
2023-05-14T14:04:20.394Z,5.82
2023-05-14T14:06:50.492Z,3.42
2023-05-14T14:09:20.472Z,5.00
2023-05-14T14:11:50.738Z,3.65
2023-05-14T14:14:23.476Z,4.53
2023-05-14T14:16:53.548Z,5.35
2023-05-14T14:19:24.193Z,4.72
2023-05-14T14:21:54.307Z,3.53
2023-05-14T14:24:24.930Z,4.55
2023-05-14T14:26:54.916Z,3.45
2023-05-14T14:29:28.598Z,4.65
2023-05-14T14:31:58.982Z,6.53
2023-05-14T14:34:29.518Z,3.25
2023-05-14T14:36:59.519Z,4.40
2023-05-14T14:39:30.720Z,6.20
2023-05-14T14:42:00.668Z,5.93
2023-05-14T14:44:33.433Z,4.90
2023-05-14T14:47:03.593Z,3.10
2023-05-14T14:49:33.623Z,3.40
2023-05-14T14:52:03.669Z,4.97
2023-05-14T14:54:33.639Z,4.68
2023-05-14T14:57:03.834Z,4.50
2023-05-14T14:59:38.080Z,3.58
2023-05-14T15:02:08.508Z,7.82
2023-05-14T15:04:41.663Z,5.53
2023-05-14T15:07:11.697Z,5.63
2023-05-14T15:09:41.615Z,10.65
2023-05-14T15:12:12.733Z,8.30
2023-05-14T15:14:45.453Z,10.60
2023-05-14T15:17:15.512Z,5.57
2023-05-14T15:19:45.498Z,4.03
2023-05-14T15:22:15.505Z,4.53
2023-05-14T15:24:45.468Z,3.83
2023-05-14T15:27:15.530Z,5.82
2023-05-14T15:29:48.640Z,5.95
2023-05-14T15:32:20.056Z,3.85
2023-05-14T15:34:50.009Z,5.13
2023-05-14T15:37:19.886Z,3.30
2023-05-14T15:39:49.993Z,3.65
2023-05-14T15:42:20.021Z,3.50
2023-05-14T15:44:52.669Z,4.47
2023-05-14T15:47:22.647Z,4.63
2023-05-14T15:49:52.896Z,5.20
2023-05-14T15:52:22.985Z,3.90
2023-05-14T15:55:01.207Z,5.65
2023-05-14T15:57:31.859Z,4.32
2023-05-14T16:00:08.477Z,4.43
2023-05-14T16:02:38.468Z,5.90
2023-05-14T16:05:09.919Z,7.13
2023-05-14T16:07:40.336Z,7.13
2023-05-14T16:10:11.477Z,6.35
2023-05-14T16:12:41.418Z,8.60
2023-05-14T16:15:16.303Z,5.20
2023-05-14T16:17:46.325Z,5.90
2023-05-14T16:20:17.286Z,4.68
2023-05-14T16:22:47.428Z,4.32
2023-05-14T16:25:18.878Z,6.28
2023-05-14T16:27:50.141Z,6.05
2023-05-14T16:30:23.072Z,8.60
2023-05-14T16:32:53.678Z,7.18
2023-05-14T16:35:23.780Z,5.63
2023-05-14T16:37:54.644Z,5.20
2023-05-14T16:40:24.813Z,6.65
2023-05-14T16:42:54.947Z,4.57
2023-05-14T16:45:32.824Z,4.75
2023-05-14T16:48:03.302Z,5.35
2023-05-14T16:50:33.365Z,5.07
2023-05-14T16:53:03.354Z,5.97
2023-05-14T16:55:34.264Z,4.93
2023-05-14T16:58:04.307Z,6.70
2023-05-14T17:00:36.933Z,5.78
2023-05-14T17:03:07.491Z,4.60
2023-05-14T17:05:38.533Z,4.40
2023-05-14T17:08:09.052Z,7.68
2023-05-14T17:10:38.976Z,5.47
2023-05-14T17:13:09.031Z,5.22
2023-05-14T17:15:44.690Z,5.45
2023-05-14T17:18:15.065Z,5.40
2023-05-14T17:20:45.405Z,5.32
2023-05-14T17:23:15.494Z,5.60
2023-05-14T17:25:45.569Z,7.82
2023-05-14T17:28:15.714Z,7.90
2023-05-14T17:30:48.265Z,4.45
2023-05-14T17:33:18.346Z,5.80
2023-05-14T17:35:48.335Z,6.20
2023-05-14T17:38:18.503Z,9.43
2023-05-14T17:40:48.448Z,5.70
2023-05-14T17:43:18.719Z,6.05
2023-05-14T17:45:54.211Z,4.88
2023-05-14T17:48:25.458Z,6.18
2023-05-14T17:50:55.386Z,8.05
2023-05-14T17:53:25.399Z,4.95
2023-05-14T17:55:55.532Z,4.97
2023-05-14T17:58:25.690Z,4.80
2023-05-14T18:00:58.374Z,5.68
2023-05-14T18:03:28.496Z,5.25
2023-05-14T18:05:58.585Z,5.13
2023-05-14T18:08:28.571Z,5.85
2023-05-14T18:11:01.034Z,4.88
2023-05-14T18:13:31.051Z,5.07
2023-05-14T18:16:04.096Z,7.55
2023-05-14T18:18:34.181Z,6.35
2023-05-14T18:21:04.133Z,8.30
2023-05-14T18:23:34.412Z,6.28
2023-05-14T18:26:04.475Z,5.05
2023-05-14T18:28:34.402Z,4.80
2023-05-14T18:31:07.054Z,5.22
2023-05-14T18:33:37.081Z,5.88
2023-05-14T18:36:07.546Z,6.50
2023-05-14T18:38:37.522Z,4.10
2023-05-14T18:41:07.472Z,5.18
2023-05-14T18:43:37.408Z,5.05
2023-05-14T18:46:10.033Z,5.63
2023-05-14T18:48:39.984Z,5.50
2023-05-14T18:51:11.518Z,8.50
2023-05-14T18:53:41.443Z,5.88
2023-05-14T18:56:11.565Z,6.28
2023-05-14T18:58:43.808Z,6.88
2023-05-14T19:01:16.405Z,5.47
2023-05-14T19:03:46.397Z,10.70
2023-05-14T19:06:16.456Z,5.25
2023-05-14T19:08:46.733Z,5.40
2023-05-14T19:11:18.275Z,5.32
2023-05-14T19:13:50.252Z,5.78
2023-05-14T19:16:33.917Z,6.80
2023-05-14T19:19:04.168Z,6.07
2023-05-14T19:21:36.995Z,8.73
2023-05-14T19:24:07.818Z,7.03
2023-05-14T19:26:37.792Z,6.07
2023-05-14T19:29:07.714Z,7.35
2023-05-14T19:31:40.224Z,5.65
2023-05-14T19:34:10.286Z,5.80
2023-05-14T19:36:40.289Z,5.45
2023-05-14T19:39:11.164Z,6.97
2023-05-14T19:41:41.273Z,7.85
2023-05-14T19:44:11.196Z,7.75
2023-05-14T19:46:44.095Z,7.80
2023-05-14T19:49:14.053Z,6.05
2023-05-14T19:51:44.000Z,7.65
2023-05-14T19:54:13.945Z,9.02
2023-05-14T19:56:43.938Z,8.57
2023-05-14T19:59:13.833Z,6.40
2023-05-14T20:01:46.448Z,8.73
2023-05-14T20:04:18.326Z,6.53
2023-05-14T20:06:48.333Z,5.63
2023-05-14T20:09:18.230Z,7.72
2023-05-14T20:11:48.478Z,8.30
2023-05-14T20:14:18.609Z,10.25
2023-05-14T20:16:54.006Z,8.82
2023-05-14T20:19:24.448Z,11.20
2023-05-14T20:21:54.547Z,5.50
2023-05-14T20:24:24.582Z,8.80
2023-05-14T20:26:54.867Z,7.65
2023-05-14T20:29:25.127Z,6.05
2023-05-14T20:31:57.629Z,7.07
2023-05-14T20:34:27.750Z,6.07
2023-05-14T20:36:57.768Z,8.20
2023-05-14T20:39:28.488Z,9.13
2023-05-14T20:41:58.499Z,8.43
2023-05-14T20:44:28.551Z,8.45
2023-05-14T20:47:01.389Z,8.50
2023-05-14T20:49:31.551Z,6.72
2023-05-14T20:52:01.810Z,11.55
2023-05-14T20:54:31.858Z,6.93
2023-05-14T20:57:01.971Z,11.82
2023-05-14T20:59:32.198Z,9.73
2023-05-14T21:02:04.957Z,9.75
2023-05-14T21:04:35.871Z,7.97
2023-05-14T21:07:06.262Z,7.03
2023-05-14T21:09:36.362Z,7.82
2023-05-14T21:12:06.446Z,7.72
2023-05-14T21:14:36.366Z,8.02
2023-05-14T21:17:09.510Z,9.80
2023-05-14T21:19:39.408Z,9.63
2023-05-14T21:22:09.729Z,7.68
2023-05-14T21:24:39.829Z,13.77
2023-05-14T21:27:09.853Z,6.57
2023-05-14T21:29:39.935Z,7.38
2023-05-14T21:32:12.607Z,8.63
2023-05-14T21:34:46.282Z,8.38
2023-05-14T21:37:16.266Z,12.63
2023-05-14T21:39:46.310Z,7.88
2023-05-14T21:42:16.405Z,9.60
2023-05-14T21:44:46.447Z,12.23
2023-05-14T21:47:20.136Z,7.80
2023-05-14T21:49:50.046Z,7.97
2023-05-14T21:52:20.056Z,9.98
2023-05-14T21:54:50.204Z,9.15
2023-05-14T21:57:20.234Z,8.90
2023-05-14T21:59:50.200Z,9.40
2023-05-14T22:02:23.462Z,11.07
2023-05-14T22:04:53.533Z,14.45
2023-05-14T22:07:23.638Z,11.98
2023-05-14T22:09:53.734Z,9.13
2023-05-14T22:12:26.466Z,8.13
2023-05-14T22:14:56.412Z,12.80
2023-05-14T22:17:29.424Z,11.50
2023-05-14T22:19:59.402Z,11.18
2023-05-14T22:22:29.816Z,10.77
2023-05-14T22:24:59.694Z,11.88
2023-05-14T22:27:29.734Z,11.00
2023-05-14T22:30:00.271Z,11.98
2023-05-14T22:32:33.003Z,10.70
2023-05-14T22:35:03.507Z,13.37
2023-05-14T22:37:33.446Z,17.83
2023-05-14T22:40:05.374Z,10.40
2023-05-14T22:42:35.328Z,12.97
2023-05-14T22:45:05.309Z,12.48
2023-05-14T22:47:38.044Z,17.33
2023-05-14T22:50:11.817Z,14.95
2023-05-14T22:52:42.022Z,16.33
2023-05-14T22:55:12.824Z,14.15
2023-05-14T22:57:53.812Z,18.40
2023-05-14T23:00:24.142Z,15.27
2023-05-14T23:02:57.036Z,17.13
2023-05-14T23:05:27.240Z,17.50
2023-05-14T23:07:57.936Z,18.03
2023-05-14T23:10:27.862Z,18.23
2023-05-14T23:12:57.770Z,15.73
2023-05-14T23:15:27.884Z,19.50
2023-05-14T23:18:00.597Z,18.67
2023-05-14T23:20:31.030Z,26.33
2023-05-14T23:23:01.059Z,25.83
2023-05-14T23:25:30.994Z,18.73
2023-05-14T23:28:00.995Z,16.93
2023-05-14T23:30:30.937Z,15.87
2023-05-14T23:33:03.558Z,20.83
2023-05-14T23:35:33.895Z,18.47
2023-05-14T23:38:03.906Z,22.13
2023-05-14T23:40:34.077Z,29.13
2023-05-14T23:43:04.130Z,24.07
2023-05-14T23:45:34.374Z,25.80
2023-05-14T23:48:07.797Z,23.57
2023-05-14T23:50:38.418Z,23.57
2023-05-14T23:53:08.660Z,26.13
2023-05-14T23:55:38.884Z,18.80
2023-05-14T23:58:09.162Z,21.73
